Time,TemperatureF,DewpointF,PressureIn,WindDirection,WindDirectionDegrees,WindSpeedMPH,WindSpeedGustMPH,Humidity,HourlyPrecipIn,Conditions,Clouds,dailyrainin,SolarRadiationWatts/m^2,SoftwareType,DateUTC
2013-06-08 00:00:00,56.8,36.8,29.59,SE,142,4.0,7.0,47,0.00,,,0.00,0,Wunderground v.1.15,2013-06-08 06:00:00,
2013-06-08 00:10:00,56.7,36.1,29.59,South,178,4.0,4.0,46,0.00,,,0.00,0,Wunderground v.1.15,2013-06-08 06:10:00,
2013-06-08 00:20:00,56.8,36.8,29.58,SSW,208,3.0,7.0,47,0.00,,,0.00,0,Wunderground v.1.15,2013-06-08 06:20:00,
2013-06-08 00:31:00,56.5,37.6,29.58,SSE,150,4.0,5.0,49,0.00,,,0.00,0,Wunderground v.1.15,2013-06-08 06:31:00,
2013-06-08 00:40:00,56.1,37.2,29.58,SSW,198,4.0,5.0,49,0.00,,,0.00,0,Wunderground v.1.15,2013-06-08 06:40:00,
2013-06-08 01:00:00,54.9,35.6,29.57,SSW,207,2.0,3.0,48,0.00,,,0.00,0,Wunderground v.1.15,2013-06-08 07:00:00,
2013-06-08 01:11:00,55.4,36.0,29.57,South,179,5.0,6.0,48,0.00,,,0.00,0,Wunderground v.1.15,2013-06-08 07:11:00,
2013-06-08 01:20:00,55.9,35.9,29.56,SW,236,7.0,7.0,47,0.00,,,0.00,0,Wunderground v.1.15,2013-06-08 07:20:00,
2013-06-08 01:31:00,55.3,35.4,29.56,West,274,4.0,5.0,47,0.00,,,0.00,0,Wunderground v.1.15,2013-06-08 07:31:00,
2013-06-08 01:40:00,55.4,35.5,29.55,WSW,255,3.0,5.0,47,0.00,,,0.00,0,Wunderground v.1.15,2013-06-08 07:40:00,
2013-06-08 01:51:00,56.5,34.8,29.55,NW,319,5.0,5.0,44,0.00,,,0.00,0,Wunderground v.1.15,2013-06-08 07:51:00,
2013-06-08 02:00:00,59.3,35.0,29.55,WNW,301,13.0,21.0,40,0.00,,,0.00,0,Wunderground v.1.15,2013-06-08 08:00:00,
2013-06-08 02:11:00,59.8,35.4,29.55,WSW,251,14.0,26.0,40,0.00,,,0.00,0,Wunderground v.1.15,2013-06-08 08:11:00,
2013-06-08 02:20:00,59.8,35.4,29.55,West,281,18.0,26.0,40,0.00,,,0.00,0,Wunderground v.1.15,2013-06-08 08:20:00,
2013-06-08 02:31:00,59.6,35.2,29.54,WNW,294,22.0,22.0,40,0.00,,,0.00,0,Wunderground v.1.15,2013-06-08 08:31:00,
2013-06-08 02:40:00,59.6,35.2,29.54,WNW,292,20.0,20.0,40,0.00,,,0.00,0,Wunderground v.1.15,2013-06-08 08:40:00,
2013-06-08 02:50:00,59.5,35.8,29.54,WNW,284,19.0,19.0,41,0.00,,,0.00,0,Wunderground v.1.15,2013-06-08 08:50:00,
2013-06-08 03:10:00,59.0,35.9,29.54,SW,215,15.0,15.0,42,0.00,,,0.00,0,Wunderground v.1.15,2013-06-08 09:10:00,
2013-06-08 03:30:00,57.5,35.7,29.53,West,280,12.0,12.0,44,0.00,,,0.00,0,Wunderground v.1.15,2013-06-08 09:30:00,
2013-06-08 03:50:00,57.0,36.4,29.53,NW,321,13.0,16.0,46,0.00,,,0.00,0,Wunderground v.1.15,2013-06-08 09:50:00,
2013-06-08 04:10:00,57.1,37.0,29.52,NW,306,14.0,14.0,47,0.00,,,0.00,0,Wunderground v.1.15,2013-06-08 10:10:00,
2013-06-08 04:30:00,57.1,37.0,29.52,South,185,15.0,15.0,47,0.00,,,0.00,0,Wunderground v.1.15,2013-06-08 10:30:00,
2013-06-08 04:41:00,57.1,37.0,29.52,WNW,286,13.0,13.0,47,0.00,,,0.00,0,Wunderground v.1.15,2013-06-08 10:41:00,
2013-06-08 04:50:00,57.1,37.0,29.53,North,350,16.0,20.0,47,0.00,,,0.00,0,Wunderground v.1.15,2013-06-08 10:50:00,
2013-06-08 05:00:00,57.0,37.0,29.52,NW,325,16.0,16.0,47,0.00,,,0.00,0,Wunderground v.1.15,2013-06-08 11:00:00,
2013-06-08 05:10:00,56.9,36.9,29.54,South,176,11.0,11.0,47,0.00,,,0.00,0,Wunderground v.1.15,2013-06-08 11:10:00,
2013-06-08 05:20:00,56.9,36.9,29.53,WNW,296,10.0,10.0,47,0.00,,,0.00,0,Wunderground v.1.15,2013-06-08 11:20:00,
2013-06-08 05:30:00,56.7,36.7,29.53,West,263,6.0,6.0,47,0.00,,,0.00,0,Wunderground v.1.15,2013-06-08 11:30:00,
2013-06-08 05:40:00,56.3,36.8,29.53,WSW,254,6.0,6.0,48,0.00,,,0.00,5,Wunderground v.1.15,2013-06-08 11:40:00,
2013-06-08 05:50:00,56.2,36.8,29.54,NNW,341,5.0,9.0,48,0.00,,,0.00,12,Wunderground v.1.15,2013-06-08 11:50:00,
2013-06-08 06:00:00,56.2,36.8,29.55,NNE,15,10.0,11.0,48,0.00,,,0.00,25,Wunderground v.1.15,2013-06-08 12:00:00,
2013-06-08 06:10:00,56.2,36.8,29.55,NNW,342,10.0,15.0,48,0.00,,,0.00,44,Wunderground v.1.15,2013-06-08 12:10:00,
2013-06-08 06:20:00,56.5,37.0,29.56,NW,312,11.0,11.0,48,0.00,,,0.00,44,Wunderground v.1.15,2013-06-08 12:20:00,
2013-06-08 06:30:00,56.6,37.1,29.56,West,264,8.0,8.0,48,0.00,,,0.00,58,Wunderground v.1.15,2013-06-08 12:30:00,
2013-06-08 06:40:00,56.7,36.7,29.56,West,260,10.0,16.0,47,0.00,,,0.00,86,Wunderground v.1.15,2013-06-08 12:40:00,
2013-06-08 06:50:00,56.8,36.8,29.57,West,263,12.0,12.0,47,0.00,,,0.00,113,Wunderground v.1.15,2013-06-08 12:50:00,
2013-06-08 07:00:00,56.7,37.7,29.58,NW,304,11.0,17.0,49,0.00,,,0.00,104,Wunderground v.1.15,2013-06-08 13:00:00,
2013-06-08 07:10:00,56.1,37.2,29.57,NW,317,9.0,13.0,49,0.00,,,0.00,102,Wunderground v.1.15,2013-06-08 13:10:00,
2013-06-08 07:20:00,55.7,37.8,29.58,North,360,7.0,7.0,51,0.00,,,0.00,141,Wunderground v.1.15,2013-06-08 13:20:00,
2013-06-08 07:30:00,55.9,37.5,29.58,NW,315,5.0,6.0,50,0.00,,,0.00,316,Wunderground v.1.15,2013-06-08 13:30:00,
2013-06-08 07:40:00,55.7,37.3,29.58,NW,325,8.0,8.0,50,0.00,,,0.00,104,Wunderground v.1.15,2013-06-08 13:40:00,
2013-06-08 07:50:00,55.6,38.2,29.58,NNW,348,6.0,6.0,52,0.00,,,0.00,390,Wunderground v.1.15,2013-06-08 13:50:00,
2013-06-08 08:00:00,56.9,41.4,29.58,North,355,10.0,10.0,56,0.00,,,0.00,378,Wunderground v.1.15,2013-06-08 14:00:00,
2013-06-08 08:10:00,56.4,41.3,29.58,North,9,14.0,14.0,57,0.00,,,0.00,81,Wunderground v.1.15,2013-06-08 14:10:00,
2013-06-08 08:30:00,54.7,42.3,29.58,NNE,26,14.0,15.0,63,0.00,,,0.00,162,Wunderground v.1.15,2013-06-08 14:30:00,
2013-06-08 08:41:00,53.3,41.8,29.59,North,360,14.0,17.0,65,0.00,,,0.00,141,Wunderground v.1.15,2013-06-08 14:41:00,
2013-06-08 08:50:00,51.7,40.7,29.60,North,5,15.0,17.0,66,0.00,,,0.00,202,Wunderground v.1.15,2013-06-08 14:50:00,
2013-06-08 09:10:00,52.4,39.8,29.61,NW,320,14.0,14.0,62,0.00,,,0.00,162,Wunderground v.1.15,2013-06-08 15:10:00,
2013-06-08 09:20:00,53.7,37.4,29.61,North,355,10.0,10.0,54,0.00,,,0.00,176,Wunderground v.1.15,2013-06-08 15:20:00,
2013-06-08 09:30:00,55.3,38.9,29.61,NE,34,7.0,8.0,54,0.00,,,0.00,292,Wunderground v.1.15,2013-06-08 15:30:00,
2013-06-08 09:40:00,58.4,39.8,29.61,NE,36,9.0,9.0,50,0.00,,,0.00,686,Wunderground v.1.15,2013-06-08 15:40:00,
2013-06-08 10:00:00,56.4,39.5,29.62,SSW,203,3.0,3.0,53,0.00,,,0.00,186,Wunderground v.1.15,2013-06-08 16:00:00,
2013-06-08 10:20:00,55.0,39.6,29.62,SSW,202,3.0,3.0,56,0.00,,,0.00,348,Wunderground v.1.15,2013-06-08 16:20:00,
2013-06-08 10:40:00,55.1,39.2,29.63,South,173,4.0,6.0,55,0.00,,,0.00,262,Wunderground v.1.15,2013-06-08 16:40:00,
2013-06-08 11:00:00,55.6,39.7,29.63,SSE,155,4.0,5.0,55,0.00,,,0.00,283,Wunderground v.1.15,2013-06-08 17:00:00,
2013-06-08 11:20:00,55.6,38.2,29.63,SSE,148,8.0,8.0,52,0.00,,,0.00,223,Wunderground v.1.15,2013-06-08 17:20:00,
2013-06-08 11:40:00,59.7,37.7,29.63,NNW,344,8.0,8.0,44,0.00,,,0.00,1065,Wunderground v.1.15,2013-06-08 17:40:00,
2013-06-08 12:00:00,62.5,37.2,29.63,North,355,10.0,24.0,39,0.00,,,0.00,1246,Wunderground v.1.15,2013-06-08 18:00:00,
2013-06-08 12:20:00,61.4,37.5,29.63,West,281,7.0,7.0,41,0.00,,,0.00,1097,Wunderground v.1.15,2013-06-08 18:20:00,
2013-06-08 12:30:00,63.1,36.4,29.64,NNW,340,11.0,11.0,37,0.00,,,0.00,1195,Wunderground v.1.15,2013-06-08 18:30:00,
2013-06-08 12:50:00,63.2,35.1,29.63,North,9,13.0,21.0,35,0.00,,,0.00,163,Wunderground v.1.15,2013-06-08 18:50:00,
2013-06-08 13:10:00,63.3,34.4,29.64,NNW,336,13.0,17.0,34,0.00,,,0.00,1086,Wunderground v.1.15,2013-06-08 19:10:00,
2013-06-08 13:30:00,63.0,34.2,29.64,NW,305,11.0,11.0,34,0.00,,,0.00,1097,Wunderground v.1.15,2013-06-08 19:30:00,
2013-06-08 13:50:00,64.0,36.5,29.65,NNW,341,10.0,10.0,36,0.00,,,0.00,1078,Wunderground v.1.15,2013-06-08 19:50:00,
2013-06-08 14:10:00,63.6,33.2,29.65,West,275,14.0,14.0,32,0.00,,,0.00,1074,Wunderground v.1.15,2013-06-08 20:10:00,
2013-06-08 14:30:00,64.0,32.7,29.65,SSW,207,10.0,10.0,31,0.00,,,0.00,1016,Wunderground v.1.15,2013-06-08 20:30:00,
2013-06-08 14:41:00,64.3,33.8,29.65,NNW,333,11.0,18.0,32,0.00,,,0.00,1016,Wunderground v.1.15,2013-06-08 20:41:00,
2013-06-08 14:50:00,65.0,34.4,29.65,North,5,9.0,9.0,32,0.00,,,0.00,1046,Wunderground v.1.15,2013-06-08 20:50:00,
2013-06-08 15:00:00,66.0,33.7,29.66,NW,315,13.0,18.0,30,0.00,,,0.00,956,Wunderground v.1.15,2013-06-08 21:00:00,
2013-06-08 15:20:00,64.8,32.6,29.67,NW,311,9.0,20.0,30,0.00,,,0.00,914,Wunderground v.1.15,2013-06-08 21:20:00,
2013-06-08 15:40:00,65.2,31.2,29.66,NW,305,11.0,18.0,28,0.00,,,0.00,735,Wunderground v.1.15,2013-06-08 21:40:00,
2013-06-08 16:00:00,65.3,33.0,29.66,WNW,301,16.0,16.0,30,0.00,,,0.00,659,Wunderground v.1.15,2013-06-08 22:00:00,
2013-06-08 16:20:00,66.0,31.9,29.66,North,355,13.0,14.0,28,0.00,,,0.00,796,Wunderground v.1.15,2013-06-08 22:20:00,
2013-06-08 16:40:00,65.1,31.2,29.67,North,5,11.0,11.0,28,0.00,,,0.00,733,Wunderground v.1.15,2013-06-08 22:40:00,
2013-06-08 17:00:00,65.9,33.6,29.67,WNW,292,13.0,13.0,30,0.00,,,0.00,668,Wunderground v.1.15,2013-06-08 23:00:00,
2013-06-08 17:20:00,66.8,32.6,29.66,North,355,10.0,16.0,28,0.00,,,0.00,591,Wunderground v.1.15,2013-06-08 23:20:00,
2013-06-08 17:31:00,67.1,33.8,29.66,NNW,333,10.0,10.0,29,0.00,,,0.00,552,Wunderground v.1.15,2013-06-08 23:31:00,
2013-06-08 17:40:00,67.2,33.8,29.66,NNE,17,8.0,10.0,29,0.00,,,0.00,512,Wunderground v.1.15,2013-06-08 23:40:00,
2013-06-08 18:00:00,66.7,34.3,29.65,ENE,59,8.0,8.0,30,0.00,,,0.00,445,Wunderground v.1.15,2013-06-09 00:00:00,
2013-06-08 18:20:00,66.0,34.5,29.66,NW,319,7.0,11.0,31,0.00,,,0.00,378,Wunderground v.1.15,2013-06-09 00:20:00,
2013-06-08 18:40:00,66.2,35.4,29.66,East,85,1.0,3.0,32,0.00,,,0.00,304,Wunderground v.1.15,2013-06-09 00:40:00,
2013-06-08 18:50:00,66.5,35.7,29.66,North,351,6.0,9.0,32,0.00,,,0.00,267,Wunderground v.1.15,2013-06-09 00:50:00,
2013-06-08 19:00:00,66.4,35.6,29.66,NW,319,4.0,4.0,32,0.00,,,0.00,223,Wunderground v.1.15,2013-06-09 01:00:00,
2013-06-08 19:10:00,64.9,38.7,29.67,West,263,3.0,3.0,38,0.00,,,0.00,51,Wunderground v.1.15,2013-06-09 01:10:00,
2013-06-08 19:20:00,60.5,38.5,29.67,West,263,1.0,1.0,44,0.00,,,0.00,26,Wunderground v.1.15,2013-06-09 01:20:00,
2013-06-08 19:30:00,56.9,37.4,29.67,West,263,1.0,1.0,48,0.00,,,0.00,33,Wunderground v.1.15,2013-06-09 01:30:00,
2013-06-08 19:40:00,55.7,37.3,29.68,WNW,288,1.0,1.0,50,0.00,,,0.00,30,Wunderground v.1.15,2013-06-09 01:40:00,
2013-06-08 19:50:00,54.9,36.1,29.68,WNW,298,1.0,1.0,49,0.00,,,0.00,28,Wunderground v.1.15,2013-06-09 01:50:00,
2013-06-08 20:00:00,55.4,35.5,29.68,NW,309,1.0,1.0,47,0.00,,,0.00,30,Wunderground v.1.15,2013-06-09 02:00:00,
2013-06-08 20:10:00,55.5,36.1,29.69,NW,310,0.0,0.0,48,0.00,,,0.00,26,Wunderground v.1.15,2013-06-09 02:10:00,
2013-06-08 20:20:00,54.9,38.1,29.69,NNW,347,1.0,3.0,53,0.00,,,0.00,11,Wunderground v.1.15,2013-06-09 02:20:00,
2013-06-08 20:30:00,54.2,36.5,29.70,NW,326,1.0,1.0,51,0.00,,,0.00,7,Wunderground v.1.15,2013-06-09 02:30:00,
2013-06-08 20:40:00,52.6,35.9,29.70,NW,326,0.0,0.0,53,0.00,,,0.00,0,Wunderground v.1.15,2013-06-09 02:40:00,
2013-06-08 20:50:00,50.6,35.5,29.70,NW,326,0.0,0.0,56,0.00,,,0.00,0,Wunderground v.1.15,2013-06-09 02:50:00,
2013-06-08 21:10:00,47.9,33.8,29.72,NW,326,0.0,0.0,58,0.00,,,0.00,0,Wunderground v.1.15,2013-06-09 03:10:00,
2013-06-08 21:30:00,46.3,32.7,29.72,WNW,295,3.0,4.0,59,0.00,,,0.00,0,Wunderground v.1.15,2013-06-09 03:30:00,
2013-06-08 21:50:00,46.2,32.7,29.74,WNW,294,1.0,1.0,59,0.00,,,0.00,0,Wunderground v.1.15,2013-06-09 03:50:00,
2013-06-08 22:10:00,44.6,32.4,29.74,WNW,294,1.0,1.0,62,0.00,,,0.00,0,Wunderground v.1.15,2013-06-09 04:10:00,
2013-06-08 22:30:00,43.4,32.0,29.75,WNW,294,1.0,3.0,64,0.00,,,0.00,0,Wunderground v.1.15,2013-06-09 04:30:00,
2013-06-08 22:50:00,43.1,30.6,29.76,WNW,294,2.0,3.0,61,0.00,,,0.00,0,Wunderground v.1.15,2013-06-09 04:50:00,
2013-06-08 23:10:00,43.2,30.6,29.76,WNW,294,2.0,3.0,61,0.00,,,0.00,0,Wunderground v.1.15,2013-06-09 05:10:00,
2013-06-08 23:30:00,42.3,31.7,29.77,NW,318,0.0,0.0,66,0.00,,,0.00,0,Wunderground v.1.15,2013-06-09 05:30:00,
2013-06-08 23:50:00,41.7,30.4,29.77,ESE,105,1.0,1.0,64,0.00,,,0.00,0,Wunderground v.1.15,2013-06-09 05:50:00,